Oakfield, Tennessee
Current Conditions -  °F | °C
As of 11:53 AM on Friday 21 Nov 2014 (Local Time) from KMKL Reporting Station
Overcast Overcast  
Wind Chill: 50°   Ceiling: 6500
Heat Index: 50°   Visibility: 10mi
Dew Point: 28°   Wind: 8mph
Humidity: 43%   Direction: 120°ESE
Pressure: 30.36"   Gusts: NA
Location:  35.72°N, 88.8°W
Report Text: KMKL 211753Z 12007KT 10SM OVC065 10/M02 A3036 RMK AO2 SLP281 T01001022 10100 20061 58009
Loading
Personal Weather Stations






























Interactive Weather Map New forecast layout! Learn more

10-Day Weather Forecast

Advertisements
Track Severe Weather on mobile